sensor_id;sensor_type;location;lat;lon;timestamp;P1;durP1;ratioP1;P2;durP2;ratioP2
80136;SDS011;69466;55.948;37.484;2024-02-21T00:01:54;17.17;;;10.57;;
80136;SDS011;69466;55.948;37.484;2024-02-21T00:04:20;19.90;;;10.88;;
80136;SDS011;69466;55.948;37.484;2024-02-21T00:06:46;19.67;;;10.90;;
80136;SDS011;69466;55.948;37.484;2024-02-21T00:09:12;17.02;;;10.48;;
80136;SDS011;69466;55.948;37.484;2024-02-21T00:11:38;21.60;;;12.07;;
80136;SDS011;69466;55.948;37.484;2024-02-21T00:14:04;23.33;;;11.88;;
80136;SDS011;69466;55.948;37.484;2024-02-21T00:16:30;20.85;;;11.25;;
80136;SDS011;69466;55.948;37.484;2024-02-21T00:18:56;20.63;;;11.48;;
80136;SDS011;69466;55.948;37.484;2024-02-21T00:21:22;19.35;;;11.50;;
80136;SDS011;69466;55.948;37.484;2024-02-21T00:23:48;20.65;;;12.00;;
80136;SDS011;69466;55.948;37.484;2024-02-21T00:26:16;21.13;;;11.70;;
80136;SDS011;69466;55.948;37.484;2024-02-21T00:28:42;18.67;;;11.48;;
80136;SDS011;69466;55.948;37.484;2024-02-21T00:31:08;19.33;;;11.27;;
80136;SDS011;69466;55.948;37.484;2024-02-21T00:33:34;19.92;;;11.65;;
80136;SDS011;69466;55.948;37.484;2024-02-21T00:36:00;20.48;;;11.25;;
80136;SDS011;69466;55.948;37.484;2024-02-21T00:38:26;19.10;;;10.73;;
80136;SDS011;69466;55.948;37.484;2024-02-21T00:40:52;18.85;;;11.43;;
80136;SDS011;69466;55.948;37.484;2024-02-21T00:43:18;19.77;;;12.00;;
80136;SDS011;69466;55.948;37.484;2024-02-21T00:45:44;23.23;;;12.75;;
80136;SDS011;69466;55.948;37.484;2024-02-21T00:48:12;26.60;;;11.98;;
80136;SDS011;69466;55.948;37.484;2024-02-21T00:50:38;20.52;;;11.38;;
80136;SDS011;69466;55.948;37.484;2024-02-21T00:53:04;20.25;;;11.10;;
80136;SDS011;69466;55.948;37.484;2024-02-21T00:55:30;18.88;;;11.40;;
80136;SDS011;69466;55.948;37.484;2024-02-21T00:57:56;21.50;;;11.32;;
80136;SDS011;69466;55.948;37.484;2024-02-21T01:00:22;37.53;;;14.88;;
80136;SDS011;69466;55.948;37.484;2024-02-21T01:02:48;22.75;;;13.02;;
80136;SDS011;69466;55.948;37.484;2024-02-21T01:05:15;20.95;;;12.63;;
80136;SDS011;69466;55.948;37.484;2024-02-21T01:07:41;22.15;;;12.55;;
80136;SDS011;69466;55.948;37.484;2024-02-21T01:10:07;21.42;;;12.70;;
80136;SDS011;69466;55.948;37.484;2024-02-21T01:12:34;22.38;;;11.88;;
80136;SDS011;69466;55.948;37.484;2024-02-21T01:15:01;23.42;;;12.48;;
80136;SDS011;69466;55.948;37.484;2024-02-21T01:17:29;21.67;;;11.93;;
80136;SDS011;69466;55.948;37.484;2024-02-21T01:19:56;23.02;;;13.57;;
80136;SDS011;69466;55.948;37.484;2024-02-21T01:22:21;22.40;;;12.32;;
80136;SDS011;69466;55.948;37.484;2024-02-21T01:24:47;25.05;;;12.60;;
80136;SDS011;69466;55.948;37.484;2024-02-21T01:27:13;26.55;;;13.80;;
80136;SDS011;69466;55.948;37.484;2024-02-21T01:29:39;24.35;;;13.93;;
80136;SDS011;69466;55.948;37.484;2024-02-21T01:32:05;24.55;;;13.70;;
80136;SDS011;69466;55.948;37.484;2024-02-21T01:34:32;23.60;;;13.65;;
80136;SDS011;69466;55.948;37.484;2024-02-21T01:36:58;24.73;;;14.30;;
80136;SDS011;69466;55.948;37.484;2024-02-21T01:39:25;24.88;;;12.27;;
80136;SDS011;69466;55.948;37.484;2024-02-21T01:41:50;23.02;;;12.65;;
80136;SDS011;69466;55.948;37.484;2024-02-21T01:44:16;22.65;;;12.80;;
80136;SDS011;69466;55.948;37.484;2024-02-21T01:46:43;23.73;;;13.88;;
80136;SDS011;69466;55.948;37.484;2024-02-21T01:49:09;25.33;;;13.75;;
80136;SDS011;69466;55.948;37.484;2024-02-21T01:51:35;22.50;;;12.70;;
80136;SDS011;69466;55.948;37.484;2024-02-21T01:54:02;25.35;;;13.70;;
80136;SDS011;69466;55.948;37.484;2024-02-21T01:56:28;24.30;;;14.00;;
80136;SDS011;69466;55.948;37.484;2024-02-21T01:58:55;24.00;;;13.75;;
80136;SDS011;69466;55.948;37.484;2024-02-21T02:01:21;24.98;;;13.82;;
80136;SDS011;69466;55.948;37.484;2024-02-21T02:03:47;23.83;;;13.18;;
80136;SDS011;69466;55.948;37.484;2024-02-21T02:06:18;24.05;;;13.80;;
80136;SDS011;69466;55.948;37.484;2024-02-21T02:08:45;26.98;;;14.65;;
80136;SDS011;69466;55.948;37.484;2024-02-21T02:11:13;25.92;;;13.68;;
80136;SDS011;69466;55.948;37.484;2024-02-21T02:13:48;28.52;;;14.05;;
80136;SDS011;69466;55.948;37.484;2024-02-21T02:16:14;22.27;;;11.50;;
80136;SDS011;69466;55.948;37.484;2024-02-21T02:18:40;23.63;;;12.88;;
80136;SDS011;69466;55.948;37.484;2024-02-21T02:21:10;27.05;;;14.38;;
80136;SDS011;69466;55.948;37.484;2024-02-21T02:23:41;25.50;;;14.32;;
80136;SDS011;69466;55.948;37.484;2024-02-21T02:26:08;22.45;;;12.80;;
80136;SDS011;69466;55.948;37.484;2024-02-21T02:28:34;29.05;;;14.02;;
80136;SDS011;69466;55.948;37.484;2024-02-21T02:31:01;25.95;;;14.98;;
80136;SDS011;69466;55.948;37.484;2024-02-21T02:33:27;26.35;;;15.65;;
80136;SDS011;69466;55.948;37.484;2024-02-21T02:35:53;22.65;;;13.05;;
80136;SDS011;69466;55.948;37.484;2024-02-21T02:38:19;24.90;;;14.45;;
80136;SDS011;69466;55.948;37.484;2024-02-21T02:40:45;25.33;;;13.80;;
80136;SDS011;69466;55.948;37.484;2024-02-21T02:43:11;25.20;;;13.98;;
80136;SDS011;69466;55.948;37.484;2024-02-21T02:45:37;23.60;;;12.73;;
80136;SDS011;69466;55.948;37.484;2024-02-21T02:48:03;27.05;;;13.88;;
80136;SDS011;69466;55.948;37.484;2024-02-21T02:50:30;25.65;;;13.43;;
80136;SDS011;69466;55.948;37.484;2024-02-21T02:52:56;23.63;;;13.40;;
80136;SDS011;69466;55.948;37.484;2024-02-21T02:55:22;25.40;;;15.13;;
80136;SDS011;69466;55.948;37.484;2024-02-21T02:57:48;25.20;;;13.20;;
80136;SDS011;69466;55.948;37.484;2024-02-21T03:00:14;28.52;;;14.05;;
80136;SDS011;69466;55.948;37.484;2024-02-21T03:02:44;24.92;;;14.55;;
80136;SDS011;69466;55.948;37.484;2024-02-21T03:05:14;28.05;;;13.10;;
80136;SDS011;69466;55.948;37.484;2024-02-21T03:10:49;26.40;;;13.82;;
80136;SDS011;69466;55.948;37.484;2024-02-21T03:13:15;23.13;;;13.65;;
80136;SDS011;69466;55.948;37.484;2024-02-21T03:15:41;25.17;;;14.68;;
80136;SDS011;69466;55.948;37.484;2024-02-21T03:18:07;24.35;;;13.10;;
80136;SDS011;69466;55.948;37.484;2024-02-21T03:20:33;27.73;;;13.82;;
80136;SDS011;69466;55.948;37.484;2024-02-21T03:22:59;24.17;;;12.90;;
80136;SDS011;69466;55.948;37.484;2024-02-21T03:25:25;24.38;;;13.45;;
80136;SDS011;69466;55.948;37.484;2024-02-21T03:27:51;24.42;;;13.80;;
80136;SDS011;69466;55.948;37.484;2024-02-21T03:30:17;24.88;;;13.63;;
80136;SDS011;69466;55.948;37.484;2024-02-21T03:32:43;22.70;;;13.07;;
80136;SDS011;69466;55.948;37.484;2024-02-21T03:35:09;27.77;;;13.95;;
80136;SDS011;69466;55.948;37.484;2024-02-21T03:37:35;22.23;;;13.55;;
80136;SDS011;69466;55.948;37.484;2024-02-21T03:40:01;27.45;;;14.30;;
80136;SDS011;69466;55.948;37.484;2024-02-21T03:42:29;27.58;;;16.30;;
80136;SDS011;69466;55.948;37.484;2024-02-21T03:44:57;25.42;;;13.55;;
80136;SDS011;69466;55.948;37.484;2024-02-21T03:47:23;23.60;;;13.93;;
80136;SDS011;69466;55.948;37.484;2024-02-21T03:49:49;25.73;;;14.90;;
80136;SDS011;69466;55.948;37.484;2024-02-21T03:52:15;27.25;;;14.27;;
80136;SDS011;69466;55.948;37.484;2024-02-21T03:54:42;28.38;;;13.48;;
80136;SDS011;69466;55.948;37.484;2024-02-21T03:57:08;28.58;;;14.15;;
80136;SDS011;69466;55.948;37.484;2024-02-21T03:59:34;29.70;;;13.60;;
80136;SDS011;69466;55.948;37.484;2024-02-21T04:02:01;29.42;;;15.00;;
80136;SDS011;69466;55.948;37.484;2024-02-21T04:04:30;28.08;;;12.57;;
80136;SDS011;69466;55.948;37.484;2024-02-21T04:06:56;24.15;;;11.93;;
80136;SDS011;69466;55.948;37.484;2024-02-21T04:09:22;28.73;;;13.68;;
80136;SDS011;69466;55.948;37.484;2024-02-21T04:11:48;26.75;;;14.00;;
80136;SDS011;69466;55.948;37.484;2024-02-21T04:14:14;29.48;;;13.98;;
80136;SDS011;69466;55.948;37.484;2024-02-21T04:16:40;26.23;;;13.77;;
80136;SDS011;69466;55.948;37.484;2024-02-21T04:19:06;26.77;;;14.05;;
80136;SDS011;69466;55.948;37.484;2024-02-21T04:21:32;28.92;;;14.75;;
80136;SDS011;69466;55.948;37.484;2024-02-21T04:23:58;25.55;;;13.40;;
80136;SDS011;69466;55.948;37.484;2024-02-21T04:26:25;26.42;;;13.80;;
80136;SDS011;69466;55.948;37.484;2024-02-21T04:28:51;27.30;;;15.05;;
80136;SDS011;69466;55.948;37.484;2024-02-21T04:31:17;26.13;;;13.98;;
80136;SDS011;69466;55.948;37.484;2024-02-21T04:33:43;24.67;;;14.15;;
80136;SDS011;69466;55.948;37.484;2024-02-21T04:36:09;25.63;;;15.07;;
80136;SDS011;69466;55.948;37.484;2024-02-21T04:38:35;25.08;;;13.43;;
80136;SDS011;69466;55.948;37.484;2024-02-21T04:41:01;22.05;;;12.52;;
80136;SDS011;69466;55.948;37.484;2024-02-21T04:43:27;31.50;;;13.73;;
80136;SDS011;69466;55.948;37.484;2024-02-21T04:45:54;27.40;;;13.05;;
80136;SDS011;69466;55.948;37.484;2024-02-21T04:48:20;26.17;;;13.80;;
80136;SDS011;69466;55.948;37.484;2024-02-21T04:50:47;25.13;;;14.00;;
80136;SDS011;69466;55.948;37.484;2024-02-21T04:53:13;26.17;;;13.73;;
80136;SDS011;69466;55.948;37.484;2024-02-21T04:55:39;25.25;;;13.32;;
80136;SDS011;69466;55.948;37.484;2024-02-21T04:58:06;25.20;;;14.20;;
80136;SDS011;69466;55.948;37.484;2024-02-21T05:00:33;25.95;;;14.13;;
80136;SDS011;69466;55.948;37.484;2024-02-21T05:03:00;24.20;;;12.77;;
80136;SDS011;69466;55.948;37.484;2024-02-21T05:05:26;26.17;;;13.98;;
80136;SDS011;69466;55.948;37.484;2024-02-21T05:07:52;23.65;;;12.15;;
80136;SDS011;69466;55.948;37.484;2024-02-21T05:10:18;24.52;;;13.95;;
80136;SDS011;69466;55.948;37.484;2024-02-21T05:12:45;30.98;;;15.45;;
80136;SDS011;69466;55.948;37.484;2024-02-21T05:15:11;26.75;;;15.18;;
80136;SDS011;69466;55.948;37.484;2024-02-21T05:17:38;25.00;;;13.68;;
80136;SDS011;69466;55.948;37.484;2024-02-21T05:20:04;24.42;;;13.80;;
80136;SDS011;69466;55.948;37.484;2024-02-21T05:22:31;21.70;;;13.38;;
80136;SDS011;69466;55.948;37.484;2024-02-21T05:24:57;22.45;;;13.13;;
80136;SDS011;69466;55.948;37.484;2024-02-21T05:27:23;23.60;;;12.80;;
80136;SDS011;69466;55.948;37.484;2024-02-21T05:29:53;27.83;;;13.85;;
80136;SDS011;69466;55.948;37.484;2024-02-21T05:32:23;29.58;;;14.40;;
80136;SDS011;69466;55.948;37.484;2024-02-21T05:34:50;26.27;;;13.77;;
80136;SDS011;69466;55.948;37.484;2024-02-21T05:37:17;24.95;;;14.27;;
80136;SDS011;69466;55.948;37.484;2024-02-21T05:39:43;27.17;;;13.75;;
80136;SDS011;69466;55.948;37.484;2024-02-21T05:42:09;26.10;;;13.52;;
80136;SDS011;69466;55.948;37.484;2024-02-21T05:44:35;26.85;;;12.77;;
80136;SDS011;69466;55.948;37.484;2024-02-21T05:47:01;26.50;;;12.95;;
80136;SDS011;69466;55.948;37.484;2024-02-21T05:49:30;25.13;;;13.95;;
80136;SDS011;69466;55.948;37.484;2024-02-21T05:51:56;25.30;;;14.20;;
80136;SDS011;69466;55.948;37.484;2024-02-21T05:54:22;25.83;;;13.10;;
80136;SDS011;69466;55.948;37.484;2024-02-21T05:56:48;26.20;;;13.45;;
80136;SDS011;69466;55.948;37.484;2024-02-21T05:59:15;25.02;;;13.63;;
80136;SDS011;69466;55.948;37.484;2024-02-21T06:01:41;23.10;;;13.43;;
80136;SDS011;69466;55.948;37.484;2024-02-21T06:04:07;22.52;;;13.45;;
80136;SDS011;69466;55.948;37.484;2024-02-21T06:06:34;23.45;;;14.50;;
80136;SDS011;69466;55.948;37.484;2024-02-21T06:09:01;25.70;;;12.57;;
80136;SDS011;69466;55.948;37.484;2024-02-21T06:11:28;24.42;;;13.30;;
80136;SDS011;69466;55.948;37.484;2024-02-21T06:13:55;25.02;;;12.98;;
80136;SDS011;69466;55.948;37.484;2024-02-21T06:16:21;27.45;;;15.30;;
80136;SDS011;69466;55.948;37.484;2024-02-21T06:18:47;24.00;;;13.05;;
80136;SDS011;69466;55.948;37.484;2024-02-21T06:21:13;23.90;;;13.27;;
80136;SDS011;69466;55.948;37.484;2024-02-21T06:23:39;22.13;;;12.98;;
80136;SDS011;69466;55.948;37.484;2024-02-21T06:26:05;21.02;;;12.95;;
80136;SDS011;69466;55.948;37.484;2024-02-21T06:28:31;26.20;;;13.40;;
80136;SDS011;69466;55.948;37.484;2024-02-21T06:30:57;22.80;;;13.15;;
80136;SDS011;69466;55.948;37.484;2024-02-21T06:33:23;23.23;;;13.20;;
80136;SDS011;69466;55.948;37.484;2024-02-21T06:35:50;22.50;;;12.15;;
80136;SDS011;69466;55.948;37.484;2024-02-21T06:38:18;22.73;;;13.00;;
80136;SDS011;69466;55.948;37.484;2024-02-21T06:40:45;23.58;;;13.38;;
80136;SDS011;69466;55.948;37.484;2024-02-21T06:43:16;25.30;;;13.52;;
80136;SDS011;69466;55.948;37.484;2024-02-21T06:45:44;21.75;;;11.85;;
80136;SDS011;69466;55.948;37.484;2024-02-21T06:48:13;24.65;;;12.15;;
80136;SDS011;69466;55.948;37.484;2024-02-21T06:50:39;23.15;;;12.48;;
80136;SDS011;69466;55.948;37.484;2024-02-21T06:53:06;21.63;;;13.23;;
80136;SDS011;69466;55.948;37.484;2024-02-21T06:55:31;21.90;;;12.25;;
80136;SDS011;69466;55.948;37.484;2024-02-21T06:57:57;23.92;;;13.95;;
80136;SDS011;69466;55.948;37.484;2024-02-21T07:00:24;22.85;;;12.63;;
80136;SDS011;69466;55.948;37.484;2024-02-21T07:02:51;21.60;;;11.60;;
80136;SDS011;69466;55.948;37.484;2024-02-21T07:05:17;23.15;;;12.93;;
80136;SDS011;69466;55.948;37.484;2024-02-21T07:07:43;22.02;;;13.57;;
80136;SDS011;69466;55.948;37.484;2024-02-21T07:10:09;23.67;;;12.68;;
80136;SDS011;69466;55.948;37.484;2024-02-21T07:12:36;21.48;;;11.85;;
80136;SDS011;69466;55.948;37.484;2024-02-21T07:15:04;24.30;;;12.82;;
80136;SDS011;69466;55.948;37.484;2024-02-21T07:17:35;20.58;;;12.57;;
80136;SDS011;69466;55.948;37.484;2024-02-21T07:20:01;21.45;;;12.10;;
80136;SDS011;69466;55.948;37.484;2024-02-21T07:22:29;23.30;;;12.07;;
80136;SDS011;69466;55.948;37.484;2024-02-21T07:24:56;21.63;;;12.05;;
80136;SDS011;69466;55.948;37.484;2024-02-21T07:27:22;20.60;;;12.20;;
80136;SDS011;69466;55.948;37.484;2024-02-21T07:29:48;22.80;;;12.32;;
80136;SDS011;69466;55.948;37.484;2024-02-21T07:32:15;26.98;;;13.18;;
80136;SDS011;69466;55.948;37.484;2024-02-21T07:34:41;23.45;;;13.00;;
80136;SDS011;69466;55.948;37.484;2024-02-21T07:37:07;20.00;;;11.98;;
80136;SDS011;69466;55.948;37.484;2024-02-21T07:39:35;21.60;;;12.05;;
80136;SDS011;69466;55.948;37.484;2024-02-21T07:42:03;21.85;;;12.60;;
80136;SDS011;69466;55.948;37.484;2024-02-21T07:44:29;24.77;;;12.55;;
80136;SDS011;69466;55.948;37.484;2024-02-21T07:46:57;26.33;;;13.45;;
80136;SDS011;69466;55.948;37.484;2024-02-21T07:49:23;29.55;;;14.75;;
80136;SDS011;69466;55.948;37.484;2024-02-21T07:51:50;23.38;;;13.00;;
80136;SDS011;69466;55.948;37.484;2024-02-21T07:54:17;24.05;;;13.48;;
80136;SDS011;69466;55.948;37.484;2024-02-21T07:56:43;25.13;;;13.43;;
80136;SDS011;69466;55.948;37.484;2024-02-21T07:59:09;26.20;;;14.77;;
80136;SDS011;69466;55.948;37.484;2024-02-21T08:01:36;21.90;;;12.82;;
80136;SDS011;69466;55.948;37.484;2024-02-21T08:04:03;22.13;;;12.90;;
80136;SDS011;69466;55.948;37.484;2024-02-21T08:06:30;22.55;;;14.30;;
80136;SDS011;69466;55.948;37.484;2024-02-21T08:08:56;22.40;;;12.27;;
80136;SDS011;69466;55.948;37.484;2024-02-21T08:11:22;23.17;;;12.93;;
80136;SDS011;69466;55.948;37.484;2024-02-21T08:13:48;25.10;;;13.15;;
80136;SDS011;69466;55.948;37.484;2024-02-21T08:16:15;22.70;;;13.07;;
80136;SDS011;69466;55.948;37.484;2024-02-21T08:18:41;20.75;;;11.55;;
80136;SDS011;69466;55.948;37.484;2024-02-21T08:21:10;22.65;;;12.93;;
80136;SDS011;69466;55.948;37.484;2024-02-21T08:23:36;23.65;;;12.82;;
80136;SDS011;69466;55.948;37.484;2024-02-21T08:26:05;24.05;;;13.40;;
80136;SDS011;69466;55.948;37.484;2024-02-21T08:28:31;24.98;;;14.63;;
80136;SDS011;69466;55.948;37.484;2024-02-21T08:30:57;24.02;;;13.20;;
80136;SDS011;69466;55.948;37.484;2024-02-21T08:33:23;27.92;;;15.35;;
80136;SDS011;69466;55.948;37.484;2024-02-21T08:35:51;21.58;;;12.77;;
80136;SDS011;69466;55.948;37.484;2024-02-21T08:38:17;25.00;;;14.75;;
80136;SDS011;69466;55.948;37.484;2024-02-21T08:40:45;25.08;;;13.35;;
80136;SDS011;69466;55.948;37.484;2024-02-21T08:43:11;25.33;;;13.73;;
80136;SDS011;69466;55.948;37.484;2024-02-21T08:45:38;26.95;;;15.20;;
80136;SDS011;69466;55.948;37.484;2024-02-21T08:48:04;25.02;;;14.38;;
80136;SDS011;69466;55.948;37.484;2024-02-21T08:50:31;26.17;;;13.73;;
80136;SDS011;69466;55.948;37.484;2024-02-21T08:52:58;24.77;;;13.90;;
80136;SDS011;69466;55.948;37.484;2024-02-21T08:55:24;23.23;;;13.48;;
80136;SDS011;69466;55.948;37.484;2024-02-21T08:57:50;27.27;;;13.70;;
80136;SDS011;69466;55.948;37.484;2024-02-21T09:00:16;22.80;;;13.15;;
80136;SDS011;69466;55.948;37.484;2024-02-21T09:02:42;23.40;;;12.95;;
80136;SDS011;69466;55.948;37.484;2024-02-21T09:05:09;28.92;;;15.35;;
80136;SDS011;69466;55.948;37.484;2024-02-21T09:07:35;30.98;;;14.65;;
80136;SDS011;69466;55.948;37.484;2024-02-21T09:10:01;24.85;;;13.13;;
80136;SDS011;69466;55.948;37.484;2024-02-21T09:12:29;25.17;;;14.02;;
80136;SDS011;69466;55.948;37.484;2024-02-21T09:14:56;27.98;;;14.38;;
80136;SDS011;69466;55.948;37.484;2024-02-21T09:17:22;25.05;;;14.18;;
80136;SDS011;69466;55.948;37.484;2024-02-21T09:19:50;24.30;;;13.05;;
80136;SDS011;69466;55.948;37.484;2024-02-21T09:22:17;23.88;;;13.98;;
80136;SDS011;69466;55.948;37.484;2024-02-21T09:24:43;28.05;;;14.15;;
80136;SDS011;69466;55.948;37.484;2024-02-21T09:27:09;26.33;;;14.32;;
80136;SDS011;69466;55.948;37.484;2024-02-21T09:29:35;31.00;;;14.70;;
80136;SDS011;69466;55.948;37.484;2024-02-21T09:32:01;26.63;;;13.82;;
80136;SDS011;69466;55.948;37.484;2024-02-21T09:34:29;30.75;;;15.10;;
80136;SDS011;69466;55.948;37.484;2024-02-21T09:36:55;31.92;;;15.82;;
80136;SDS011;69466;55.948;37.484;2024-02-21T09:39:22;29.65;;;14.75;;
80136;SDS011;69466;55.948;37.484;2024-02-21T09:41:58;26.20;;;15.00;;
80136;SDS011;69466;55.948;37.484;2024-02-21T09:44:31;29.10;;;16.02;;
80136;SDS011;69466;55.948;37.484;2024-02-21T09:47:03;27.70;;;13.38;;
80136;SDS011;69466;55.948;37.484;2024-02-21T09:49:33;26.25;;;14.63;;
80136;SDS011;69466;55.948;37.484;2024-02-21T09:52:02;29.00;;;14.70;;
80136;SDS011;69466;55.948;37.484;2024-02-21T09:54:35;25.20;;;14.30;;
80136;SDS011;69466;55.948;37.484;2024-02-21T09:57:02;25.15;;;14.25;;
80136;SDS011;69466;55.948;37.484;2024-02-21T09:59:31;18.67;;;10.05;;
80136;SDS011;69466;55.948;37.484;2024-02-21T10:01:58;25.77;;;14.30;;
80136;SDS011;69466;55.948;37.484;2024-02-21T10:04:26;26.58;;;12.40;;
80136;SDS011;69466;55.948;37.484;2024-02-21T10:06:53;24.80;;;13.95;;
80136;SDS011;69466;55.948;37.484;2024-02-21T10:09:20;27.60;;;13.90;;
80136;SDS011;69466;55.948;37.484;2024-02-21T10:11:48;25.40;;;14.05;;
80136;SDS011;69466;55.948;37.484;2024-02-21T10:14:16;25.52;;;13.05;;
80136;SDS011;69466;55.948;37.484;2024-02-21T10:16:42;24.75;;;14.60;;
80136;SDS011;69466;55.948;37.484;2024-02-21T10:19:17;23.83;;;12.40;;
80136;SDS011;69466;55.948;37.484;2024-02-21T10:21:44;23.60;;;12.85;;
80136;SDS011;69466;55.948;37.484;2024-02-21T10:24:11;22.92;;;12.10;;
80136;SDS011;69466;55.948;37.484;2024-02-21T10:26:38;29.75;;;13.70;;
80136;SDS011;69466;55.948;37.484;2024-02-21T10:29:04;24.48;;;13.18;;
80136;SDS011;69466;55.948;37.484;2024-02-21T10:31:30;23.48;;;13.88;;
80136;SDS011;69466;55.948;37.484;2024-02-21T10:36:23;26.50;;;13.98;;
80136;SDS011;69466;55.948;37.484;2024-02-21T10:38:54;23.83;;;12.15;;
80136;SDS011;69466;55.948;37.484;2024-02-21T10:41:20;20.63;;;12.10;;
80136;SDS011;69466;55.948;37.484;2024-02-21T10:43:52;23.00;;;12.25;;
80136;SDS011;69466;55.948;37.484;2024-02-21T10:46:20;21.85;;;12.15;;
80136;SDS011;69466;55.948;37.484;2024-02-21T10:48:51;21.08;;;12.38;;
80136;SDS011;69466;55.948;37.484;2024-02-21T10:51:29;23.25;;;12.57;;
80136;SDS011;69466;55.948;37.484;2024-02-21T10:56:43;23.10;;;12.20;;
80136;SDS011;69466;55.948;37.484;2024-02-21T10:59:10;24.58;;;12.90;;
80136;SDS011;69466;55.948;37.484;2024-02-21T11:01:44;24.70;;;12.32;;
80136;SDS011;69466;55.948;37.484;2024-02-21T11:04:10;21.45;;;12.13;;
80136;SDS011;69466;55.948;37.484;2024-02-21T11:06:40;24.85;;;13.88;;
80136;SDS011;69466;55.948;37.484;2024-02-21T11:09:08;23.05;;;13.32;;
80136;SDS011;69466;55.948;37.484;2024-02-21T11:11:37;23.27;;;12.85;;
80136;SDS011;69466;55.948;37.484;2024-02-21T11:14:27;23.50;;;12.32;;
80136;SDS011;69466;55.948;37.484;2024-02-21T11:16:58;29.35;;;13.57;;
80136;SDS011;69466;55.948;37.484;2024-02-21T11:19:25;24.00;;;13.55;;
80136;SDS011;69466;55.948;37.484;2024-02-21T11:21:53;20.50;;;11.82;;
80136;SDS011;69466;55.948;37.484;2024-02-21T11:24:33;22.65;;;12.27;;
80136;SDS011;69466;55.948;37.484;2024-02-21T11:27:09;19.73;;;11.65;;
80136;SDS011;69466;55.948;37.484;2024-02-21T11:29:47;20.70;;;11.73;;
80136;SDS011;69466;55.948;37.484;2024-02-21T11:32:17;23.27;;;12.43;;
80136;SDS011;69466;55.948;37.484;2024-02-21T11:34:58;22.38;;;11.82;;
80136;SDS011;69466;55.948;37.484;2024-02-21T11:37:35;20.80;;;11.50;;
80136;SDS011;69466;55.948;37.484;2024-02-21T11:40:06;19.42;;;11.05;;
80136;SDS011;69466;55.948;37.484;2024-02-21T11:42:36;22.58;;;12.50;;
80136;SDS011;69466;55.948;37.484;2024-02-21T11:45:02;24.80;;;13.10;;
80136;SDS011;69466;55.948;37.484;2024-02-21T11:47:32;24.65;;;12.52;;
80136;SDS011;69466;55.948;37.484;2024-02-21T11:49:58;21.73;;;11.25;;
80136;SDS011;69466;55.948;37.484;2024-02-21T11:52:25;17.23;;;10.65;;
80136;SDS011;69466;55.948;37.484;2024-02-21T11:54:53;20.80;;;11.95;;
80136;SDS011;69466;55.948;37.484;2024-02-21T11:57:22;20.50;;;10.50;;
80136;SDS011;69466;55.948;37.484;2024-02-21T11:59:48;20.77;;;12.10;;
80136;SDS011;69466;55.948;37.484;2024-02-21T12:02:15;22.23;;;11.20;;
80136;SDS011;69466;55.948;37.484;2024-02-21T12:04:43;21.30;;;10.60;;
80136;SDS011;69466;55.948;37.484;2024-02-21T12:07:10;22.77;;;11.98;;
80136;SDS011;69466;55.948;37.484;2024-02-21T12:09:36;19.70;;;10.82;;
80136;SDS011;69466;55.948;37.484;2024-02-21T12:12:05;20.55;;;11.05;;
80136;SDS011;69466;55.948;37.484;2024-02-21T12:14:32;20.30;;;11.30;;
80136;SDS011;69466;55.948;37.484;2024-02-21T12:17:02;17.00;;;11.07;;
80136;SDS011;69466;55.948;37.484;2024-02-21T12:19:32;20.80;;;10.48;;
80136;SDS011;69466;55.948;37.484;2024-02-21T12:22:00;18.55;;;10.85;;
80136;SDS011;69466;55.948;37.484;2024-02-21T12:24:27;21.52;;;11.90;;
80136;SDS011;69466;55.948;37.484;2024-02-21T12:26:54;20.77;;;11.25;;
80136;SDS011;69466;55.948;37.484;2024-02-21T12:29:22;20.98;;;10.93;;
80136;SDS011;69466;55.948;37.484;2024-02-21T12:31:52;21.73;;;11.13;;
80136;SDS011;69466;55.948;37.484;2024-02-21T12:34:20;19.58;;;10.82;;
80136;SDS011;69466;55.948;37.484;2024-02-21T12:36:47;19.67;;;11.25;;
80136;SDS011;69466;55.948;37.484;2024-02-21T12:39:16;21.25;;;10.35;;
80136;SDS011;69466;55.948;37.484;2024-02-21T12:41:42;35.47;;;11.30;;
80136;SDS011;69466;55.948;37.484;2024-02-21T12:44:12;21.35;;;11.20;;
80136;SDS011;69466;55.948;37.484;2024-02-21T12:46:43;21.55;;;11.63;;
80136;SDS011;69466;55.948;37.484;2024-02-21T12:49:17;19.80;;;10.63;;
80136;SDS011;69466;55.948;37.484;2024-02-21T12:51:44;21.25;;;11.07;;
80136;SDS011;69466;55.948;37.484;2024-02-21T12:54:12;20.70;;;10.43;;
80136;SDS011;69466;55.948;37.484;2024-02-21T12:56:38;18.98;;;9.90;;
80136;SDS011;69466;55.948;37.484;2024-02-21T12:59:05;20.33;;;10.85;;
80136;SDS011;69466;55.948;37.484;2024-02-21T13:01:35;20.92;;;10.90;;
80136;SDS011;69466;55.948;37.484;2024-02-21T13:04:09;24.75;;;12.30;;
80136;SDS011;69466;55.948;37.484;2024-02-21T13:06:39;21.40;;;12.23;;
80136;SDS011;69466;55.948;37.484;2024-02-21T13:09:10;21.83;;;12.65;;
80136;SDS011;69466;55.948;37.484;2024-02-21T13:11:39;19.08;;;11.30;;
80136;SDS011;69466;55.948;37.484;2024-02-21T13:14:06;22.50;;;12.45;;
80136;SDS011;69466;55.948;37.484;2024-02-21T13:16:32;20.27;;;11.80;;
80136;SDS011;69466;55.948;37.484;2024-02-21T13:19:05;21.65;;;11.60;;
80136;SDS011;69466;55.948;37.484;2024-02-21T13:21:32;18.33;;;10.90;;
80136;SDS011;69466;55.948;37.484;2024-02-21T13:23:58;23.75;;;12.07;;
80136;SDS011;69466;55.948;37.484;2024-02-21T13:26:24;24.40;;;10.77;;
80136;SDS011;69466;55.948;37.484;2024-02-21T13:28:50;20.30;;;10.80;;
80136;SDS011;69466;55.948;37.484;2024-02-21T13:31:16;23.40;;;11.85;;
80136;SDS011;69466;55.948;37.484;2024-02-21T13:33:42;20.70;;;11.90;;
80136;SDS011;69466;55.948;37.484;2024-02-21T13:36:12;23.85;;;10.95;;
80136;SDS011;69466;55.948;37.484;2024-02-21T13:38:38;22.30;;;11.23;;
80136;SDS011;69466;55.948;37.484;2024-02-21T13:41:07;18.50;;;11.93;;
80136;SDS011;69466;55.948;37.484;2024-02-21T13:43:34;23.60;;;12.50;;
80136;SDS011;69466;55.948;37.484;2024-02-21T13:46:00;22.60;;;11.70;;
80136;SDS011;69466;55.948;37.484;2024-02-21T13:48:35;23.83;;;11.68;;
80136;SDS011;69466;55.948;37.484;2024-02-21T13:51:01;22.73;;;12.85;;
80136;SDS011;69466;55.948;37.484;2024-02-21T13:53:28;31.08;;;11.25;;
80136;SDS011;69466;55.948;37.484;2024-02-21T13:55:55;22.92;;;10.68;;
80136;SDS011;69466;55.948;37.484;2024-02-21T13:58:27;21.80;;;11.50;;
80136;SDS011;69466;55.948;37.484;2024-02-21T14:00:53;19.58;;;10.35;;
80136;SDS011;69466;55.948;37.484;2024-02-21T14:03:19;22.40;;;10.85;;
80136;SDS011;69466;55.948;37.484;2024-02-21T14:05:46;24.63;;;12.27;;
80136;SDS011;69466;55.948;37.484;2024-02-21T14:08:14;21.73;;;12.05;;
80136;SDS011;69466;55.948;37.484;2024-02-21T14:10:40;21.42;;;11.55;;
80136;SDS011;69466;55.948;37.484;2024-02-21T14:13:06;21.17;;;11.18;;
80136;SDS011;69466;55.948;37.484;2024-02-21T14:15:32;20.20;;;11.55;;
80136;SDS011;69466;55.948;37.484;2024-02-21T14:18:01;20.95;;;11.63;;